CDT,Max TemperatureF,Mean TemperatureF,Min TemperatureF,Max Dew PointF,MeanDew PointF,Min DewpointF,Max Humidity, Mean Humidity, Min Humidity, Max Sea Level PressureIn, Mean Sea Level PressureIn, Min Sea Level PressureIn, Max VisibilityMiles, Mean VisibilityMiles, Min VisibilityMiles, Max Wind SpeedMPH, Mean Wind SpeedMPH, Max Gust SpeedMPH,PrecipitationIn, CloudCover, Events, WindDirDegrees
2013-6-1,74,68,61,67,62,55,93,77,61,29.82,29.73,29.70,10,9,1,24,11,31,0.24,6,Rain-Thunderstorm,212
2013-6-2,62,58,53,58,53,48,90,79,67,30.05,29.94,29.81,10,10,10,13,7,20,0.00,7,,310
2013-6-3,68,58,48,49,46,43,93,71,48,30.14,30.07,30.04,10,9,4,13,4,19,0.00,1,,87
2013-6-4,73,62,51,54,49,44,89,67,44,30.13,30.08,30.02,10,10,10,15,7,19,0.00,0,,112
2013-6-5,78,67,56,59,55,52,86,66,45,30.04,29.97,29.88,10,10,10,10,4,18,0.00,3,,69
2013-6-6,73,66,58,60,56,51,84,73,61,29.90,29.87,29.85,10,10,2,14,6,17,0.07,7,Rain,11
2013-6-7,74,64,54,54,52,49,77,63,49,29.93,29.91,29.89,10,10,10,13,6,19,0.00,2,,5
2013-6-8,78,65,51,57,50,43,83,62,40,29.97,29.94,29.92,10,10,10,10,3,14,0.00,1,,151
2013-6-9,81,72,62,64,58,55,84,65,45,29.95,29.85,29.78,10,10,7,33,9,38,0.01,4,Rain,178
2013-6-10,79,70,60,61,60,58,93,73,52,29.89,29.81,29.75,10,9,3,12,4,17,T,5,Rain,271
2013-6-11,86,73,59,71,64,57,90,72,54,29.94,29.88,29.81,10,10,5,14,5,20,0.02,1,Rain-Thunderstorm,191
2013-6-12,93,81,69,72,70,67,97,72,46,29.88,29.75,29.60,10,10,6,25,11,33,T,1,,233
2013-6-13,83,74,65,64,58,52,93,64,34,30.00,29.88,29.69,10,10,5,20,9,27,0.01,4,Rain,354
2013-6-14,80,69,58,59,55,52,80,62,43,30.12,30.05,29.97,10,10,10,15,4,19,0.00,0,,67
2013-6-15,77,72,67,68,64,56,93,77,61,30.07,29.99,29.90,10,8,1,24,8,35,0.60,5,Rain-Thunderstorm,225
2013-6-16,83,74,64,68,66,62,93,76,58,29.98,29.94,29.90,10,10,9,15,5,24,T,5,Rain,247
2013-6-17,86,75,63,67,62,56,100,69,37,29.96,29.93,29.88,10,8,1,10,3,12,0.00,0,,258
2013-6-18,82,73,63,64,60,54,93,71,48,30.03,29.95,29.88,10,10,10,16,9,22,0.00,1,,53
2013-6-19,85,71,57,60,55,48,72,52,32,30.10,30.06,30.03,10,10,10,12,5,17,0.00,0,,53
2013-6-20,89,77,64,66,61,56,84,61,37,30.12,30.08,30.03,10,10,7,14,7,19,0.00,0,,163
2013-6-21,90,80,69,71,66,60,90,71,52,30.09,30.05,29.95,10,10,4,28,11,40,0.04,1,Rain-Thunderstorm,166
2013-6-22,85,77,68,73,69,62,87,78,69,30.05,30.01,29.98,10,9,7,28,9,36,0.00,0,,188
2013-6-23,89,79,68,71,67,63,90,71,52,30.04,29.99,29.92,10,9,1,20,8,26,0.11,2,Rain,178
2013-6-24,87,77,67,73,67,63,93,78,63,30.12,30.01,29.90,10,9,2,29,7,38,0.51,4,Rain-Thunderstorm,125
2013-6-25,87,79,71,73,70,65,93,77,61,29.93,29.88,29.82,10,9,2,22,11,27,0.18,2,Rain-Thunderstorm,197
2013-6-26,86,77,68,74,70,64,94,78,62,29.85,29.77,29.72,10,9,1,24,7,32,0.21,3,Rain-Thunderstorm,225
2013-6-27,90,81,72,72,68,32,93,71,48,29.84,29.80,29.75,10,9,6,16,7,27,0.00,1,,294
2013-6-28,84,76,67,65,60,56,87,62,37,29.78,29.71,29.65,10,10,10,21,8,29,0.00,2,,302
2013-6-29,74,69,64,64,61,58,87,78,68,29.77,29.67,29.63,10,9,2,21,7,25,0.19,5,Rain,344
2013-6-30,80,71,61,61,57,44,84,63,42,29.98,29.87,29.78,10,10,10,20,9,26,0.00,3,,29